createdAt,value
2018-03-23T00:02:24.329Z,86.23
2018-03-23T00:04:52.226Z,86.06
2018-03-23T00:07:20.187Z,85.48
2018-03-23T00:09:48.124Z,86.26
2018-03-23T00:12:16.099Z,86.00
2018-03-23T00:14:44.595Z,86.08
2018-03-23T00:17:12.565Z,86.11
2018-03-23T00:19:40.821Z,86.41
2018-03-23T00:22:08.788Z,86.22
2018-03-23T00:24:36.804Z,85.90
2018-03-23T00:27:04.750Z,86.38
2018-03-23T00:29:32.728Z,85.70
2018-03-23T00:32:00.670Z,86.17
2018-03-23T00:34:28.603Z,86.39
2018-03-23T00:36:56.559Z,86.28
2018-03-23T00:39:24.493Z,85.48
2018-03-23T00:41:52.473Z,86.22
2018-03-23T00:44:20.409Z,86.25
2018-03-23T00:46:48.400Z,85.73
2018-03-23T00:49:16.451Z,86.11
2018-03-23T00:51:44.479Z,86.02
2018-03-23T00:54:12.419Z,86.36
2018-03-23T00:56:40.377Z,86.09
2018-03-23T00:59:08.346Z,85.88
2018-03-23T01:01:36.257Z,86.19
2018-03-23T01:04:04.209Z,86.45
2018-03-23T01:06:32.255Z,86.61
2018-03-23T01:09:00.149Z,86.64
2018-03-23T01:11:28.249Z,87.01
2018-03-23T01:13:56.250Z,86.56
2018-03-23T01:16:24.152Z,86.60
2018-03-23T01:18:52.132Z,86.82
2018-03-23T01:21:20.074Z,86.61
2018-03-23T01:23:48.039Z,86.27
2018-03-23T01:26:16.005Z,86.48
2018-03-23T01:28:43.951Z,86.31
2018-03-23T01:31:11.886Z,86.03
2018-03-23T01:33:39.806Z,86.70
2018-03-23T01:36:07.786Z,86.32
2018-03-23T01:38:35.722Z,86.25
2018-03-23T01:41:03.648Z,86.29
2018-03-23T01:43:31.612Z,86.00
2018-03-23T01:45:59.550Z,85.79
2018-03-23T01:48:27.544Z,85.48
2018-03-23T01:50:55.497Z,85.38
2018-03-23T01:53:35.317Z,85.35
2018-03-23T01:56:03.237Z,85.74
2018-03-23T01:58:31.332Z,85.33
2018-03-23T02:00:59.274Z,85.67
2018-03-23T02:03:27.250Z,86.61
2018-03-23T02:05:55.210Z,85.94
2018-03-23T02:08:23.184Z,86.10
2018-03-23T02:10:51.132Z,85.82
2018-03-23T02:13:19.053Z,86.10
2018-03-23T02:15:47.008Z,86.33
2018-03-23T02:18:14.945Z,86.03
2018-03-23T02:20:42.995Z,86.41
2018-03-23T02:23:10.926Z,86.05
2018-03-23T02:25:38.866Z,86.38
2018-03-23T02:28:06.836Z,86.21
2018-03-23T02:30:34.781Z,85.30
2018-03-23T02:33:02.702Z,85.33
2018-03-23T02:35:30.668Z,85.67
2018-03-23T02:37:58.607Z,85.59
2018-03-23T02:40:26.564Z,85.46
2018-03-23T02:42:54.474Z,85.37
2018-03-23T02:45:22.410Z,85.38
2018-03-23T02:47:50.365Z,85.03
2018-03-23T02:50:18.312Z,85.49
2018-03-23T02:52:46.246Z,85.90
2018-03-23T02:55:14.192Z,85.83
2018-03-23T02:57:42.132Z,85.61
2018-03-23T03:00:10.078Z,85.99
2018-03-23T03:02:38.024Z,85.72
2018-03-23T03:05:05.965Z,85.57
2018-03-23T03:07:33.907Z,86.08
2018-03-23T03:10:01.872Z,85.38
2018-03-23T03:12:29.796Z,85.65
2018-03-23T03:14:57.774Z,85.79
2018-03-23T03:17:25.718Z,85.62
2018-03-23T03:19:53.648Z,85.96
2018-03-23T03:22:21.573Z,85.80
2018-03-23T03:24:49.536Z,85.58
2018-03-23T03:27:17.494Z,86.36
2018-03-23T03:29:45.437Z,86.36
2018-03-23T03:32:13.371Z,86.45
2018-03-23T03:34:41.301Z,86.39
2018-03-23T03:37:09.237Z,86.86
2018-03-23T03:39:37.186Z,86.82
2018-03-23T03:42:05.167Z,86.38
2018-03-23T03:44:33.107Z,86.69
2018-03-23T03:47:01.038Z,86.53
2018-03-23T03:49:28.990Z,86.15
2018-03-23T03:51:56.925Z,85.99
2018-03-23T03:54:24.884Z,85.98
2018-03-23T03:56:52.835Z,85.58
2018-03-23T03:59:20.818Z,86.06
2018-03-23T04:01:48.793Z,86.19
2018-03-23T04:04:16.813Z,86.19
2018-03-23T04:06:44.801Z,86.27
2018-03-23T04:09:12.861Z,86.11
2018-03-23T04:11:40.879Z,86.38
2018-03-23T04:14:08.897Z,86.41
2018-03-23T04:16:36.907Z,86.36
2018-03-23T04:19:04.945Z,86.54
2018-03-23T04:21:32.965Z,86.09
2018-03-23T04:24:00.986Z,86.08
2018-03-23T04:26:28.992Z,86.38
2018-03-23T04:28:57.029Z,86.32
2018-03-23T04:31:25.030Z,86.67
2018-03-23T04:33:53.066Z,86.77
2018-03-23T04:36:21.117Z,86.51
2018-03-23T04:38:49.124Z,89.59
2018-03-23T04:41:17.160Z,88.84
2018-03-23T04:43:45.150Z,85.54
2018-03-23T04:46:13.174Z,85.25
2018-03-23T04:48:41.188Z,85.19
2018-03-23T04:51:09.184Z,85.11
2018-03-23T04:53:37.224Z,84.71
2018-03-23T04:56:05.229Z,86.98
2018-03-23T04:58:33.365Z,86.22
2018-03-23T05:01:01.380Z,85.14
2018-03-23T05:03:29.414Z,83.61
2018-03-23T05:05:57.415Z,82.97
2018-03-23T05:08:25.454Z,82.91
2018-03-23T05:10:53.477Z,83.68
2018-03-23T05:13:21.540Z,83.71
2018-03-23T05:15:49.562Z,83.22
2018-03-23T05:18:17.620Z,82.46
2018-03-23T05:20:45.690Z,82.66
2018-03-23T05:23:13.707Z,82.61
2018-03-23T05:25:41.759Z,82.16
2018-03-23T05:28:09.753Z,82.09
2018-03-23T05:30:37.795Z,82.74
2018-03-23T05:33:05.793Z,82.87
2018-03-23T05:35:33.836Z,84.29
2018-03-23T05:38:01.917Z,84.81
2018-03-23T05:40:29.982Z,85.46
2018-03-23T05:42:58.025Z,85.48
2018-03-23T05:45:26.033Z,86.32
2018-03-23T05:47:54.078Z,86.26
2018-03-23T05:50:22.093Z,86.56
2018-03-23T05:52:50.171Z,87.05
2018-03-23T05:55:18.305Z,86.98
2018-03-23T05:57:46.381Z,87.15
2018-03-23T06:00:14.379Z,87.04
2018-03-23T06:02:42.391Z,86.55
2018-03-23T06:05:10.388Z,86.67
2018-03-23T06:07:38.419Z,86.25
2018-03-23T06:10:06.561Z,86.83
2018-03-23T06:12:34.980Z,86.46
2018-03-23T06:15:03.009Z,85.96
2018-03-23T06:17:31.045Z,86.90
2018-03-23T06:20:00.442Z,87.30
2018-03-23T06:22:28.466Z,86.58
2018-03-23T06:24:56.482Z,86.37
2018-03-23T06:27:24.507Z,85.67
2018-03-23T06:29:52.546Z,85.96
2018-03-23T06:32:20.574Z,85.60
2018-03-23T06:34:48.596Z,89.45
2018-03-23T06:37:16.749Z,86.57
2018-03-23T06:39:45.431Z,85.72
2018-03-23T06:42:13.556Z,85.84
2018-03-23T06:44:42.576Z,85.87
2018-03-23T06:47:10.695Z,84.56
2018-03-23T06:49:39.706Z,84.78
2018-03-23T06:52:07.800Z,84.96
2018-03-23T06:54:36.189Z,84.48
2018-03-23T06:57:04.292Z,83.44
2018-03-23T06:59:32.321Z,84.65
2018-03-23T07:02:00.854Z,84.19
2018-03-23T07:04:28.903Z,83.72
2018-03-23T07:06:56.925Z,84.34
2018-03-23T07:09:24.983Z,84.55
2018-03-23T07:11:52.997Z,84.90
2018-03-23T07:14:21.152Z,84.62
2018-03-23T07:16:49.361Z,84.78
2018-03-23T07:19:17.561Z,84.13
2018-03-23T07:21:45.673Z,85.01
2018-03-23T07:24:13.787Z,85.64
2018-03-23T07:26:41.906Z,85.65
2018-03-23T07:29:10.054Z,86.09
2018-03-23T07:31:38.104Z,84.14
2018-03-23T07:34:06.160Z,84.42
2018-03-23T07:36:34.269Z,84.57
2018-03-23T07:39:02.401Z,84.69
2018-03-23T07:41:30.435Z,84.43
2018-03-23T07:43:58.445Z,84.62
2018-03-23T07:46:26.449Z,83.89
2018-03-23T07:48:55.278Z,83.09
2018-03-23T07:51:23.594Z,83.06
2018-03-23T07:53:51.618Z,82.89
2018-03-23T07:56:19.691Z,83.09
2018-03-23T07:58:47.696Z,81.94
2018-03-23T08:01:15.749Z,82.65
2018-03-23T08:03:43.800Z,82.77
2018-03-23T08:06:11.809Z,83.04
2018-03-23T08:08:39.848Z,81.69
2018-03-23T08:11:07.864Z,82.44
2018-03-23T08:13:35.991Z,82.77
2018-03-23T08:16:04.506Z,82.22
2018-03-23T08:18:32.527Z,81.28
2018-03-23T08:21:00.593Z,81.75
2018-03-23T08:23:28.588Z,81.74
2018-03-23T08:25:56.592Z,81.37
2018-03-23T08:28:24.848Z,80.93
2018-03-23T08:30:52.921Z,81.00
2018-03-23T08:33:20.919Z,80.71
2018-03-23T08:35:49.266Z,80.13
2018-03-23T08:38:17.325Z,80.02
2018-03-23T08:40:45.422Z,81.66
2018-03-23T08:43:13.486Z,82.39
2018-03-23T08:45:41.553Z,80.98
2018-03-23T08:48:09.636Z,84.39
2018-03-23T08:50:37.657Z,81.65
2018-03-23T08:53:05.666Z,80.54
2018-03-23T08:55:33.645Z,81.13
2018-03-23T08:58:01.754Z,80.00
2018-03-23T09:00:29.779Z,78.72
2018-03-23T09:02:58.072Z,79.69
2018-03-23T09:05:26.266Z,79.27
2018-03-23T09:07:54.496Z,79.46
2018-03-23T09:10:22.683Z,79.86
2018-03-23T09:12:50.742Z,80.07
2018-03-23T09:15:18.837Z,80.24
2018-03-23T09:17:46.963Z,79.85
2018-03-23T09:20:14.981Z,79.02
2018-03-23T09:22:43.037Z,79.06
2018-03-23T09:25:11.123Z,79.44
2018-03-23T09:27:39.507Z,80.32
2018-03-23T09:30:07.528Z,80.82
2018-03-23T09:32:35.584Z,80.62
2018-03-23T09:35:03.624Z,80.56
2018-03-23T09:37:31.656Z,80.20
2018-03-23T09:39:59.871Z,80.80
2018-03-23T09:42:27.906Z,80.27
2018-03-23T09:44:55.934Z,80.17
2018-03-23T09:47:23.964Z,81.33
2018-03-23T09:49:51.962Z,81.13
2018-03-23T09:52:20.009Z,81.10
2018-03-23T09:54:48.039Z,80.71
2018-03-23T09:57:16.175Z,80.42
2018-03-23T09:59:44.196Z,80.58
2018-03-23T10:02:12.267Z,82.37
2018-03-23T10:04:40.319Z,79.99
2018-03-23T10:07:08.347Z,80.88
2018-03-23T10:09:36.419Z,78.00
2018-03-23T10:12:04.435Z,78.56
2018-03-23T10:14:32.438Z,79.47
2018-03-23T10:17:00.457Z,79.63
2018-03-23T10:19:28.475Z,78.91
2018-03-23T10:21:56.565Z,79.84
2018-03-23T10:24:24.617Z,79.20
2018-03-23T10:26:52.654Z,78.25
2018-03-23T10:29:20.740Z,79.17
2018-03-23T10:31:48.798Z,79.02
2018-03-23T10:34:16.828Z,78.77
2018-03-23T10:36:44.919Z,79.43
2018-03-23T10:39:12.926Z,80.66
2018-03-23T10:41:40.953Z,80.91
2018-03-23T10:44:08.981Z,80.91
2018-03-23T10:46:37.017Z,80.57
2018-03-23T10:49:05.003Z,80.93
2018-03-23T10:51:33.066Z,81.05
2018-03-23T10:54:01.980Z,81.39
2018-03-23T10:56:29.993Z,81.43
2018-03-23T10:58:58.136Z,81.66
2018-03-23T11:01:32.856Z,81.17
2018-03-23T11:04:00.996Z,80.56
2018-03-23T11:06:29.831Z,80.94
2018-03-23T11:08:57.891Z,80.95
2018-03-23T11:11:25.933Z,80.56
2018-03-23T11:13:54.841Z,80.72
2018-03-23T11:16:23.005Z,80.45
2018-03-23T11:18:51.278Z,80.11
2018-03-23T11:21:19.390Z,80.15
2018-03-23T11:23:47.550Z,80.71
2018-03-23T11:26:15.616Z,80.56
2018-03-23T11:28:43.651Z,79.95
2018-03-23T11:31:11.662Z,79.83
2018-03-23T11:33:40.499Z,80.94
2018-03-23T11:36:08.518Z,81.46
2018-03-23T11:38:36.829Z,80.52
2018-03-23T11:41:05.142Z,80.69
2018-03-23T11:43:33.229Z,81.18
2018-03-23T11:46:01.323Z,81.06
2018-03-23T11:48:29.357Z,80.65
2018-03-23T11:50:57.387Z,80.65
2018-03-23T11:53:26.035Z,80.65
2018-03-23T11:55:54.052Z,81.24
2018-03-23T11:58:22.118Z,79.84
2018-03-23T12:00:50.145Z,80.33
2018-03-23T12:03:18.155Z,80.30
2018-03-23T12:05:46.172Z,79.81
2018-03-23T12:08:14.191Z,80.40
2018-03-23T12:10:42.202Z,80.78
2018-03-23T12:13:10.243Z,80.48
2018-03-23T12:15:38.281Z,80.39
2018-03-23T12:18:06.316Z,80.94
2018-03-23T12:20:34.412Z,81.36
2018-03-23T12:23:02.562Z,82.31
2018-03-23T12:25:30.628Z,81.91
2018-03-23T12:27:58.639Z,81.01
2018-03-23T12:30:26.750Z,81.29
2018-03-23T12:32:54.782Z,81.23
2018-03-23T12:35:22.783Z,80.85
2018-03-23T12:37:50.813Z,81.57
2018-03-23T12:40:18.804Z,81.54
2018-03-23T12:42:46.829Z,81.22
2018-03-23T12:45:14.836Z,81.69
2018-03-23T12:47:42.850Z,81.02
2018-03-23T12:50:10.842Z,81.48
2018-03-23T12:52:38.851Z,81.68
2018-03-23T12:55:06.875Z,80.98
2018-03-23T12:57:34.913Z,80.60
2018-03-23T13:00:02.920Z,80.91
2018-03-23T13:02:30.998Z,80.07
2018-03-23T13:04:59.012Z,80.36
2018-03-23T13:07:27.091Z,80.98
2018-03-23T13:09:55.160Z,81.25
2018-03-23T13:12:23.585Z,81.10
2018-03-23T13:14:51.821Z,80.73
2018-03-23T13:17:20.599Z,80.57
2018-03-23T13:19:48.866Z,80.17
2018-03-23T13:22:16.903Z,80.80
2018-03-23T13:24:44.915Z,80.23
2018-03-23T13:27:12.993Z,80.51
2018-03-23T13:29:41.103Z,80.50
2018-03-23T13:32:09.147Z,80.91
2018-03-23T13:34:37.205Z,81.10
2018-03-23T13:37:05.240Z,80.95
2018-03-23T13:39:33.242Z,80.92
2018-03-23T13:42:01.299Z,80.95
2018-03-23T13:44:29.319Z,80.68
2018-03-23T13:46:57.323Z,81.17
2018-03-23T13:49:25.368Z,81.23
2018-03-23T13:51:53.410Z,81.23
2018-03-23T13:54:21.586Z,80.78
2018-03-23T13:56:49.639Z,82.01
2018-03-23T13:59:23.297Z,81.98
2018-03-23T14:01:51.327Z,81.68
2018-03-23T14:04:19.360Z,80.99
2018-03-23T14:06:47.674Z,80.33
2018-03-23T14:09:15.685Z,81.45
2018-03-23T14:11:43.729Z,81.91
2018-03-23T14:14:12.393Z,81.70
2018-03-23T14:16:40.460Z,82.05
2018-03-23T14:19:08.471Z,81.82
2018-03-23T14:21:36.619Z,81.50
2018-03-23T14:24:05.085Z,81.19
2018-03-23T14:26:33.949Z,81.84
2018-03-23T14:29:02.299Z,82.42
2018-03-23T14:31:30.333Z,82.84
2018-03-23T14:33:58.455Z,82.29
2018-03-23T14:36:26.497Z,82.94
2018-03-23T14:38:54.533Z,82.54
2018-03-23T14:41:22.553Z,83.13
2018-03-23T14:43:50.615Z,82.97
2018-03-23T14:46:18.678Z,82.82
2018-03-23T14:48:46.749Z,83.16
2018-03-23T14:51:14.832Z,83.30
2018-03-23T14:53:43.051Z,83.61
2018-03-23T14:56:11.167Z,84.47
2018-03-23T14:58:44.896Z,83.73
2018-03-23T15:01:12.956Z,82.87
2018-03-23T15:03:41.027Z,83.24
2018-03-23T15:06:09.071Z,83.22
2018-03-23T15:08:37.218Z,83.83
2018-03-23T15:11:05.529Z,82.07
2018-03-23T15:13:33.525Z,81.52
2018-03-23T15:16:01.596Z,81.64
2018-03-23T15:18:30.055Z,81.48
2018-03-23T15:23:32.378Z,81.52
2018-03-23T15:26:00.416Z,81.83
2018-03-23T15:28:28.640Z,81.87
2018-03-23T15:30:56.658Z,82.10
2018-03-23T15:33:25.122Z,82.26
2018-03-23T15:35:53.145Z,82.56
2018-03-23T15:38:21.180Z,82.80
2018-03-23T15:40:49.450Z,82.69
2018-03-23T15:43:17.460Z,82.51
2018-03-23T15:45:45.487Z,83.00
2018-03-23T15:48:13.489Z,83.10
2018-03-23T15:50:41.521Z,81.63
2018-03-23T15:53:09.537Z,82.38
2018-03-23T15:55:37.595Z,83.32
2018-03-23T15:58:05.649Z,82.55
2018-03-23T16:00:34.130Z,82.40
2018-03-23T16:03:03.128Z,82.91
2018-03-23T16:05:31.475Z,82.89
2018-03-23T16:08:00.918Z,83.29
2018-03-23T16:10:29.172Z,83.28
2018-03-23T16:12:57.190Z,82.88
2018-03-23T16:15:25.472Z,83.14
2018-03-23T16:17:53.491Z,84.48
2018-03-23T16:20:21.569Z,82.92
2018-03-23T16:22:49.601Z,83.00
2018-03-23T16:25:18.657Z,83.15
2018-03-23T16:27:46.699Z,83.20
2018-03-23T16:30:14.700Z,82.82
2018-03-23T16:32:42.749Z,83.10
2018-03-23T16:35:11.259Z,83.66
2018-03-23T16:37:39.408Z,83.93
2018-03-23T16:40:07.421Z,83.94
2018-03-23T16:42:35.460Z,84.12
2018-03-23T16:45:03.550Z,84.33
2018-03-23T16:47:31.597Z,84.22
2018-03-23T16:49:59.605Z,84.45
2018-03-23T16:52:27.622Z,84.44
2018-03-23T16:54:55.647Z,84.90
2018-03-23T16:57:24.090Z,85.20
2018-03-23T16:59:52.180Z,85.61
2018-03-23T17:02:20.242Z,85.80
2018-03-23T17:04:49.117Z,85.29
2018-03-23T17:07:17.131Z,85.26
2018-03-23T17:09:45.185Z,85.29
2018-03-23T17:12:13.230Z,85.08
2018-03-23T17:14:41.240Z,85.10
2018-03-23T17:17:09.311Z,85.14
2018-03-23T17:19:37.326Z,85.83
2018-03-23T17:22:05.333Z,85.27
2018-03-23T17:24:33.360Z,85.71
2018-03-23T17:27:01.391Z,86.29
2018-03-23T17:29:29.455Z,85.92
2018-03-23T17:31:57.510Z,85.47
2018-03-23T17:34:25.561Z,85.74
2018-03-23T17:36:53.585Z,85.67
2018-03-23T17:39:21.619Z,86.02
2018-03-23T17:41:49.625Z,85.90
2018-03-23T17:44:17.664Z,85.79
2018-03-23T17:46:46.444Z,85.96
2018-03-23T17:49:14.538Z,86.29
2018-03-23T17:51:42.558Z,86.32
2018-03-23T17:54:10.660Z,86.66
2018-03-23T17:56:38.693Z,86.46
2018-03-23T17:59:06.775Z,86.56
2018-03-23T18:01:34.832Z,87.09
2018-03-23T18:04:02.935Z,86.92
2018-03-23T18:06:30.949Z,86.41
2018-03-23T18:08:59.015Z,87.39
2018-03-23T18:11:27.074Z,86.96
2018-03-23T18:13:55.150Z,87.03
2018-03-23T18:16:23.193Z,87.76
2018-03-23T18:18:51.202Z,87.40
2018-03-23T18:21:19.198Z,86.55
2018-03-23T18:23:47.239Z,87.19
2018-03-23T18:26:15.284Z,87.58
2018-03-23T18:28:43.314Z,87.64
2018-03-23T18:31:11.382Z,87.41
2018-03-23T18:33:39.459Z,87.95
2018-03-23T18:36:07.467Z,88.13
2018-03-23T18:38:35.569Z,88.19
2018-03-23T18:41:04.284Z,87.04
2018-03-23T18:43:32.324Z,88.47
2018-03-23T18:46:00.347Z,88.40
2018-03-23T18:48:28.374Z,88.70
2018-03-23T18:50:56.443Z,88.33
2018-03-23T18:53:24.581Z,88.92
2018-03-23T18:55:52.682Z,88.35
2018-03-23T18:58:21.366Z,88.92
2018-03-23T19:00:49.410Z,88.98
2018-03-23T19:03:17.407Z,88.55
2018-03-23T19:05:45.420Z,88.31
2018-03-23T19:08:13.621Z,88.91
2018-03-23T19:10:41.684Z,89.20
2018-03-23T19:13:09.873Z,88.92
2018-03-23T19:15:37.991Z,89.09
2018-03-23T19:18:05.934Z,88.78
2018-03-23T19:20:33.947Z,89.22
2018-03-23T19:23:01.977Z,89.57
2018-03-23T19:25:29.989Z,89.24
2018-03-23T19:27:57.992Z,89.30
2018-03-23T19:30:25.992Z,89.19
2018-03-23T19:32:53.995Z,89.70
2018-03-23T19:35:22.137Z,89.48
2018-03-23T19:37:50.138Z,89.45
2018-03-23T19:40:18.250Z,90.12
2018-03-23T19:42:46.283Z,89.50
2018-03-23T19:45:14.336Z,89.44
2018-03-23T19:47:42.296Z,90.42
2018-03-23T19:50:10.335Z,90.24
2018-03-23T19:52:38.341Z,90.26
2018-03-23T19:55:06.368Z,90.15
2018-03-23T19:57:34.397Z,89.70
2018-03-23T20:00:02.408Z,90.38
2018-03-23T20:02:30.483Z,90.25
2018-03-23T20:04:58.551Z,90.36
2018-03-23T20:07:26.647Z,90.34
2018-03-23T20:09:54.671Z,90.60
2018-03-23T20:12:22.696Z,90.56
2018-03-23T20:14:50.675Z,90.21
2018-03-23T20:20:22.114Z,90.82
2018-03-23T20:22:50.130Z,90.70
2018-03-23T20:25:18.193Z,90.57
2018-03-23T20:27:51.928Z,90.19
2018-03-23T20:30:19.940Z,90.43
2018-03-23T20:32:48.005Z,90.38
2018-03-23T20:35:16.257Z,90.77
2018-03-23T20:37:44.618Z,90.92
2018-03-23T20:40:13.002Z,90.68
2018-03-23T20:42:41.006Z,91.21
2018-03-23T20:45:09.009Z,91.62
2018-03-23T20:47:37.071Z,91.21
2018-03-23T20:50:05.973Z,91.08
2018-03-23T20:52:33.971Z,91.79
2018-03-23T20:55:01.981Z,91.72
2018-03-23T20:57:29.955Z,91.69
2018-03-23T20:59:57.983Z,92.13
2018-03-23T21:02:26.578Z,92.01
2018-03-23T21:04:54.641Z,92.21
2018-03-23T21:07:22.673Z,92.19
2018-03-23T21:09:50.746Z,92.37
2018-03-23T21:12:18.784Z,92.43
2018-03-23T21:14:46.792Z,92.80
2018-03-23T21:17:14.792Z,92.31
2018-03-23T21:19:42.798Z,93.16
2018-03-23T21:22:10.934Z,93.01
2018-03-23T21:24:38.991Z,91.96
2018-03-23T21:27:07.015Z,92.47
2018-03-23T21:29:35.284Z,92.56
2018-03-23T21:32:03.299Z,92.91
2018-03-23T21:34:31.637Z,93.14
2018-03-23T21:36:59.657Z,93.17
2018-03-23T21:39:27.671Z,93.14
2018-03-23T21:41:55.698Z,94.17
2018-03-23T21:44:23.698Z,94.04
2018-03-23T21:46:51.791Z,93.75
2018-03-23T21:49:19.906Z,94.11
2018-03-23T21:51:47.947Z,94.04
2018-03-23T21:54:15.981Z,94.09
2018-03-23T21:56:43.977Z,93.81
2018-03-23T21:59:12.017Z,93.69
2018-03-23T22:01:40.038Z,93.95
2018-03-23T22:04:08.092Z,93.46
2018-03-23T22:06:36.134Z,92.85
2018-03-23T22:09:04.182Z,93.12
2018-03-23T22:11:32.425Z,93.01
2018-03-23T22:14:00.679Z,93.29
2018-03-23T22:16:35.557Z,93.30
2018-03-23T22:19:04.238Z,93.92
2018-03-23T22:21:34.067Z,93.69
2018-03-23T22:24:02.209Z,93.89
2018-03-23T22:26:31.091Z,92.40
2018-03-23T22:29:00.083Z,93.11
2018-03-23T22:31:29.014Z,92.43
2018-03-23T22:33:57.243Z,91.56
2018-03-23T22:36:25.555Z,92.14
2018-03-23T22:38:54.515Z,92.82
2018-03-23T22:41:22.918Z,92.28
2018-03-23T22:43:51.176Z,92.46
2018-03-23T22:46:19.475Z,92.46
2018-03-23T22:48:48.935Z,93.19
2018-03-23T22:51:17.069Z,92.91
2018-03-23T22:53:46.124Z,93.01
2018-03-23T22:56:17.171Z,93.28
2018-03-23T22:58:45.203Z,93.13
2018-03-23T23:01:13.480Z,93.19
2018-03-23T23:03:42.032Z,93.49
2018-03-23T23:06:10.413Z,93.68
2018-03-23T23:08:38.901Z,93.46
2018-03-23T23:11:08.142Z,93.39
2018-03-23T23:13:38.277Z,93.34
2018-03-23T23:16:06.830Z,92.73
2018-03-23T23:18:35.225Z,93.01
2018-03-23T23:21:04.708Z,93.66
2018-03-23T23:23:33.674Z,94.22
2018-03-23T23:26:01.911Z,94.38
2018-03-23T23:28:30.220Z,94.08
2018-03-23T23:30:58.429Z,94.32
2018-03-23T23:33:26.783Z,94.26
2018-03-23T23:35:56.418Z,93.91
2018-03-23T23:38:24.551Z,93.59
2018-03-23T23:40:52.630Z,93.43
2018-03-23T23:43:20.667Z,94.05
2018-03-23T23:45:48.852Z,94.10
2018-03-23T23:48:16.909Z,93.08
2018-03-23T23:50:45.160Z,93.78
2018-03-23T23:53:13.307Z,93.49
2018-03-23T23:55:41.525Z,93.88
